createdAt,value
2022-09-29T04:29:51.910Z,99.99
2022-09-29T04:30:52.808Z,99.99
2022-09-29T04:31:52.871Z,99.99
2022-09-29T04:32:52.778Z,99.99
2022-09-29T04:33:52.793Z,99.99
2022-09-29T04:34:52.749Z,99.99
2022-09-29T04:35:52.737Z,99.99
2022-09-29T04:36:52.728Z,99.99
2022-09-29T04:37:52.708Z,99.99
2022-09-29T04:38:52.736Z,99.99
2022-09-29T04:39:52.692Z,99.99
2022-09-29T04:40:52.720Z,99.99
2022-09-29T04:41:52.680Z,99.99
2022-09-29T04:42:52.671Z,99.99
2022-09-29T04:43:52.650Z,99.99
2022-09-29T04:44:52.663Z,99.99
2022-09-29T04:45:52.720Z,99.99
2022-09-29T04:46:52.623Z,99.99
2022-09-29T04:47:52.613Z,99.99
2022-09-29T04:48:52.600Z,99.99
2022-09-29T04:49:52.608Z,99.99
2022-09-29T04:50:52.575Z,99.99
2022-09-29T04:51:52.576Z,99.99
2022-09-29T04:52:52.539Z,99.99
2022-09-29T04:53:52.537Z,99.99
2022-09-29T04:54:52.544Z,99.99
2022-09-29T04:55:52.518Z,99.99
2022-09-29T04:56:52.759Z,99.99
2022-09-29T04:57:52.504Z,99.99
2022-09-29T04:58:52.489Z,99.99
2022-09-29T04:59:52.534Z,99.99
2022-09-29T05:00:52.484Z,99.99
2022-09-29T05:01:52.506Z,99.99
2022-09-29T05:02:52.425Z,99.99
2022-09-29T05:03:52.428Z,99.99
2022-09-29T05:04:52.436Z,99.99
2022-09-29T05:05:52.409Z,99.99
2022-09-29T05:06:52.393Z,99.99
2022-09-29T05:07:52.370Z,99.99
2022-09-29T05:08:52.375Z,99.99
2022-09-29T05:09:52.357Z,99.99
2022-09-29T05:10:52.349Z,99.99
2022-09-29T05:11:52.330Z,99.99
2022-09-29T05:12:52.360Z,99.99
2022-09-29T05:14:47.173Z,99.99
2022-09-29T05:15:48.162Z,99.99
2022-09-29T05:16:48.166Z,99.99
2022-09-29T05:17:48.129Z,99.99
2022-09-29T05:18:48.117Z,99.99
2022-09-29T05:19:48.106Z,99.99
2022-09-29T05:21:05.687Z,99.99
2022-09-29T05:21:48.084Z,99.99
2022-09-29T05:22:48.074Z,99.99
2022-09-29T05:23:48.065Z,99.99
2022-09-29T05:24:48.070Z,99.99
2022-09-29T05:25:48.074Z,99.99
2022-09-29T05:26:48.018Z,99.99
2022-09-29T05:27:48.025Z,99.99
2022-09-29T05:28:48.017Z,99.99
2022-09-29T05:29:48.000Z,99.99
2022-09-29T05:30:48.081Z,99.99
2022-09-29T05:31:48.721Z,99.99
2022-09-29T05:32:47.971Z,99.99
2022-09-29T05:33:47.940Z,99.99
2022-09-29T05:34:47.940Z,99.99
2022-09-29T05:35:47.950Z,99.99
2022-09-29T05:36:47.930Z,99.99
2022-09-29T05:37:47.905Z,99.99
2022-09-29T05:38:47.894Z,99.99
2022-09-29T05:39:48.086Z,99.99
2022-09-29T05:40:47.936Z,99.99
2022-09-29T05:41:47.920Z,99.99
2022-09-29T05:42:47.871Z,99.99
2022-09-29T05:43:48.621Z,99.99
2022-09-29T05:44:47.838Z,99.99
2022-09-29T05:45:47.885Z,99.99
2022-09-29T05:46:47.854Z,99.99
2022-09-29T05:47:48.809Z,99.99
2022-09-29T05:48:47.815Z,99.99
2022-09-29T05:49:48.606Z,99.99
2022-09-29T05:50:47.802Z,99.99
2022-09-29T05:51:47.752Z,99.99
2022-09-29T05:52:47.748Z,99.99
2022-09-29T05:53:47.759Z,99.99
2022-09-29T05:54:48.623Z,99.99
2022-09-29T05:55:47.717Z,99.99
2022-09-29T05:56:47.720Z,99.99
2022-09-29T05:57:48.616Z,99.99
2022-09-29T05:58:47.736Z,99.99
2022-09-29T05:59:51.460Z,99.99
2022-09-29T06:00:47.718Z,99.99
2022-09-29T06:01:47.741Z,99.99
2022-09-29T06:02:47.682Z,99.99
2022-09-29T06:03:47.628Z,99.99
2022-09-29T06:04:47.617Z,99.99
2022-09-29T06:05:47.621Z,99.99
2022-09-29T06:06:47.646Z,99.99
2022-09-29T06:07:47.574Z,99.99
2022-09-29T06:08:47.566Z,99.99
2022-09-29T06:09:47.546Z,99.99
2022-09-29T06:10:47.577Z,99.99
2022-09-29T06:11:47.545Z,99.99
2022-09-29T06:12:47.564Z,99.99
2022-09-29T06:13:47.534Z,99.99
2022-09-29T06:14:47.535Z,99.99
2022-09-29T06:15:47.500Z,99.99
2022-09-29T06:16:47.533Z,99.99
2022-09-29T06:17:47.549Z,99.99
2022-09-29T06:18:47.480Z,99.99
2022-09-29T06:19:47.450Z,99.99
2022-09-29T06:20:47.448Z,99.99
2022-09-29T06:21:47.444Z,99.99
2022-09-29T06:22:47.459Z,99.99
2022-09-29T06:23:50.068Z,99.99
2022-09-29T06:24:47.521Z,99.99
2022-09-29T06:25:50.129Z,99.99
2022-09-29T06:26:47.398Z,99.99
2022-09-29T06:27:47.389Z,99.99
2022-09-29T06:28:47.380Z,99.99
2022-09-29T06:29:47.347Z,99.99
2022-09-29T06:30:47.335Z,99.99
2022-09-29T06:31:47.410Z,99.99
2022-09-29T06:32:47.376Z,99.99
2022-09-29T06:33:47.351Z,99.99
2022-09-29T06:34:47.290Z,99.99
2022-09-29T06:35:47.270Z,99.99
2022-09-29T06:36:47.266Z,99.99
2022-09-29T06:37:47.255Z,99.99
2022-09-29T06:38:47.257Z,99.99
2022-09-29T06:39:47.248Z,99.99
2022-09-29T06:40:47.310Z,99.99
2022-09-29T06:41:47.239Z,99.99
2022-09-29T06:42:47.219Z,99.99
2022-09-29T06:43:47.203Z,99.99
2022-09-29T06:44:48.126Z,99.99
2022-09-29T06:45:47.218Z,99.99
2022-09-29T06:46:51.124Z,99.99
2022-09-29T06:47:47.181Z,99.99
2022-09-29T06:48:47.168Z,99.99
2022-09-29T06:50:03.754Z,99.99
2022-09-29T06:50:48.939Z,99.99
2022-09-29T06:51:47.110Z,99.99
2022-09-29T06:53:00.292Z,99.99
2022-09-29T06:53:48.711Z,99.99
2022-09-29T06:54:47.298Z,99.99
2022-09-29T06:55:47.065Z,99.99
2022-09-29T06:56:47.082Z,99.99
2022-09-29T06:57:47.044Z,99.99
2022-09-29T06:58:47.036Z,99.99
2022-09-29T06:59:47.036Z,99.99
2022-09-29T07:00:49.955Z,99.99
2022-09-29T07:01:47.013Z,99.99
2022-09-29T07:02:47.673Z,99.99
2022-09-29T07:03:47.008Z,99.99
2022-09-29T07:04:46.985Z,99.99
2022-09-29T07:06:01.957Z,99.99
2022-09-29T07:06:46.969Z,99.99
2022-09-29T07:07:51.190Z,99.99
2022-09-29T07:08:46.915Z,99.99
2022-09-29T07:09:46.959Z,99.99
2022-09-29T07:10:46.904Z,99.99
2022-09-29T07:11:47.659Z,99.99
2022-09-29T07:12:47.628Z,99.99
2022-09-29T07:13:48.598Z,99.99
2022-09-29T07:14:46.851Z,99.99
2022-09-29T07:15:46.865Z,99.99
2022-09-29T07:16:46.859Z,99.99
2022-09-29T07:17:46.842Z,99.99
2022-09-29T07:18:46.812Z,99.99
2022-09-29T07:19:46.797Z,99.99
2022-09-29T07:20:46.808Z,99.99
2022-09-29T07:21:46.769Z,99.99
2022-09-29T07:22:46.754Z,99.99
2022-09-29T07:23:46.730Z,99.99
2022-09-29T07:24:46.739Z,99.99
2022-09-29T07:25:52.129Z,99.99
2022-09-29T07:26:46.742Z,99.99
2022-09-29T07:27:47.678Z,99.99
2022-09-29T07:28:46.690Z,99.99
2022-09-29T07:29:57.207Z,99.99
2022-09-29T07:30:46.749Z,99.99
2022-09-29T07:31:51.815Z,99.99
2022-09-29T07:32:57.873Z,99.99
2022-09-29T07:33:46.770Z,99.99
2022-09-29T07:34:46.675Z,99.99
2022-09-29T07:35:46.615Z,99.99
2022-09-29T07:36:46.649Z,99.99
2022-09-29T07:37:53.142Z,99.99
2022-09-29T07:38:46.604Z,99.98
2022-09-29T07:39:46.572Z,99.21
2022-09-29T07:40:46.621Z,98.96
2022-09-29T07:41:46.555Z,98.65
2022-09-29T07:42:46.533Z,98.19
2022-09-29T07:43:46.569Z,97.99
2022-09-29T07:44:51.447Z,97.16
2022-09-29T07:45:47.187Z,97.47
2022-09-29T07:46:46.503Z,97.53
2022-09-29T07:47:46.478Z,97.94
2022-09-29T07:48:46.499Z,97.02
2022-09-29T07:49:46.464Z,96.40
2022-09-29T07:50:46.443Z,96.70
2022-09-29T07:51:46.496Z,96.66
2022-09-29T07:52:46.421Z,96.35
2022-09-29T07:53:46.409Z,96.41
2022-09-29T07:54:46.487Z,96.00
2022-09-29T07:55:46.401Z,95.65
2022-09-29T07:56:46.395Z,95.44
2022-09-29T07:57:46.378Z,94.21
2022-09-29T07:58:46.377Z,92.78
2022-09-29T07:59:52.384Z,93.19
2022-09-29T08:00:46.385Z,94.37
2022-09-29T08:01:46.323Z,93.55
2022-09-29T08:02:46.326Z,92.94
2022-09-29T08:03:46.309Z,93.35
2022-09-29T08:04:46.277Z,92.74
2022-09-29T08:05:46.390Z,92.94
2022-09-29T08:06:46.281Z,92.22
2022-09-29T08:07:46.272Z,91.96
2022-09-29T08:08:57.795Z,92.31
2022-09-29T08:09:46.246Z,92.31
2022-09-29T08:10:52.671Z,93.13
2022-09-29T08:11:46.328Z,94.52
2022-09-29T08:12:46.188Z,94.11
2022-09-29T08:13:46.202Z,93.45
2022-09-29T08:14:46.201Z,93.86
2022-09-29T08:15:46.178Z,92.43
2022-09-29T08:16:46.211Z,91.97
2022-09-29T08:17:46.151Z,92.94
2022-09-29T08:18:46.125Z,92.83
2022-09-29T08:19:46.123Z,92.38
2022-09-29T08:20:46.125Z,90.81
2022-09-29T08:21:46.120Z,90.06
2022-09-29T08:22:46.079Z,88.08
2022-09-29T08:23:46.064Z,86.90
2022-09-29T08:24:46.062Z,88.14
2022-09-29T08:25:57.148Z,85.18
2022-09-29T08:26:46.058Z,85.14
2022-09-29T08:27:54.193Z,83.56
2022-09-29T08:28:46.434Z,78.86
2022-09-29T08:29:46.854Z,76.75
2022-09-29T08:30:46.014Z,74.31
2022-09-29T08:31:46.169Z,75.56
2022-09-29T08:32:45.990Z,71.60
2022-09-29T08:33:46.002Z,71.64
2022-09-29T08:34:45.957Z,70.39
2022-09-29T08:35:46.845Z,66.15
2022-09-29T08:36:45.985Z,64.67
2022-09-29T08:37:45.913Z,62.46
2022-09-29T08:38:46.001Z,61.76
2022-09-29T08:39:45.969Z,61.92
2022-09-29T08:40:45.955Z,64.02
2022-09-29T08:41:45.868Z,58.29
2022-09-29T08:42:49.010Z,58.14
2022-09-29T08:43:45.879Z,55.30
2022-09-29T08:44:46.842Z,55.58
2022-09-29T08:45:57.913Z,56.30
2022-09-29T08:46:45.927Z,56.05
2022-09-29T08:47:47.843Z,55.60
2022-09-29T08:48:55.465Z,55.76
2022-09-29T08:49:46.023Z,56.38
2022-09-29T08:50:45.765Z,56.36
2022-09-29T08:51:45.776Z,55.88
2022-09-29T08:52:51.842Z,58.74
2022-09-29T08:53:57.031Z,58.88
2022-09-29T08:54:48.738Z,58.31
2022-09-29T08:55:45.734Z,59.39
2022-09-29T08:56:45.714Z,58.25
2022-09-29T08:57:46.706Z,57.28
2022-09-29T08:58:45.684Z,57.65
2022-09-29T08:59:46.811Z,57.50
2022-09-29T09:00:45.737Z,57.39
2022-09-29T09:01:45.662Z,56.92
2022-09-29T09:02:45.717Z,57.57
2022-09-29T09:03:45.658Z,58.55
2022-09-29T09:04:45.609Z,57.17
2022-09-29T09:05:45.622Z,59.04
2022-09-29T09:06:45.604Z,58.51
2022-09-29T09:07:45.849Z,59.31
2022-09-29T09:08:45.628Z,59.16
2022-09-29T09:09:45.563Z,57.29
2022-09-29T09:10:45.554Z,56.96
2022-09-29T09:11:45.567Z,55.43
2022-09-29T09:12:45.526Z,55.13
2022-09-29T09:13:45.516Z,55.23
2022-09-29T09:14:45.513Z,54.93
2022-09-29T09:15:45.550Z,55.63
2022-09-29T09:16:45.525Z,55.23
2022-09-29T09:17:45.481Z,55.10
2022-09-29T09:18:45.509Z,55.83
2022-09-29T09:19:45.445Z,56.03
2022-09-29T09:20:46.246Z,56.74
2022-09-29T09:21:45.461Z,55.60
2022-09-29T09:22:45.419Z,55.00
2022-09-29T09:23:45.412Z,55.51
2022-09-29T09:24:45.416Z,54.47
2022-09-29T09:25:45.392Z,55.78
2022-09-29T09:26:45.389Z,55.02
2022-09-29T09:27:45.367Z,53.50
2022-09-29T09:28:45.368Z,53.39
2022-09-29T09:29:45.330Z,53.82
2022-09-29T09:30:45.430Z,54.15
2022-09-29T09:31:45.310Z,55.22
2022-09-29T09:32:45.357Z,54.02
2022-09-29T09:33:48.684Z,53.30
2022-09-29T09:34:45.866Z,53.25
2022-09-29T09:35:55.187Z,54.50
2022-09-29T09:36:45.386Z,55.03
2022-09-29T09:37:45.287Z,55.23
2022-09-29T09:38:45.296Z,54.60
2022-09-29T09:39:45.234Z,55.38
2022-09-29T09:40:45.211Z,53.95
2022-09-29T09:41:45.209Z,53.95
2022-09-29T09:42:45.209Z,53.72
2022-09-29T09:43:45.183Z,53.87
2022-09-29T09:44:45.187Z,52.17
2022-09-29T09:45:45.218Z,51.84
2022-09-29T09:46:45.185Z,50.94
2022-09-29T09:47:45.146Z,51.12
2022-09-29T09:48:45.129Z,50.29
2022-09-29T09:49:45.134Z,50.15
2022-09-29T09:50:45.111Z,49.44
2022-09-29T09:52:45.081Z,49.67
2022-09-29T09:53:45.071Z,50.47
2022-09-29T09:54:45.975Z,50.22
2022-09-29T09:55:45.067Z,49.90
2022-09-29T09:56:45.089Z,49.48
2022-09-29T09:57:45.044Z,49.35
2022-09-29T09:58:45.036Z,49.03
2022-09-29T09:59:44.997Z,47.31
2022-09-29T10:00:45.014Z,46.81
2022-09-29T10:01:45.027Z,46.89
2022-09-29T10:02:45.091Z,46.57
2022-09-29T10:03:44.960Z,45.23
2022-09-29T10:04:44.969Z,45.21
2022-09-29T10:05:44.944Z,43.82
2022-09-29T10:06:44.935Z,44.26
2022-09-29T10:07:44.935Z,44.85
2022-09-29T10:08:44.987Z,45.10
2022-09-29T10:09:44.998Z,45.50
2022-09-29T10:10:57.508Z,45.79
2022-09-29T10:11:44.901Z,46.30
2022-09-29T10:12:44.885Z,45.15
2022-09-29T10:13:44.855Z,44.02
2022-09-29T10:14:44.863Z,44.00
2022-09-29T10:15:44.823Z,44.00
2022-09-29T10:16:44.860Z,44.00
2022-09-29T10:17:44.830Z,43.70
2022-09-29T10:18:44.801Z,42.69
2022-09-29T10:19:44.792Z,41.75
2022-09-29T10:20:44.772Z,42.03
2022-09-29T10:21:44.785Z,41.52
2022-09-29T10:22:48.393Z,41.61
2022-09-29T10:23:44.772Z,41.75
2022-09-29T10:24:44.752Z,41.93
2022-09-29T10:25:44.739Z,40.62
2022-09-29T10:26:44.716Z,40.70
2022-09-29T10:27:44.718Z,40.90
2022-09-29T10:28:44.712Z,41.44
2022-09-29T10:29:44.687Z,41.06
2022-09-29T10:30:44.728Z,42.29
2022-09-29T10:31:44.680Z,43.20
2022-09-29T10:32:44.689Z,42.66
2022-09-29T10:33:44.671Z,42.23
2022-09-29T10:34:44.708Z,41.20
2022-09-29T10:35:44.624Z,40.45
2022-09-29T10:36:44.593Z,39.12
2022-09-29T10:37:44.613Z,38.61
2022-09-29T10:38:44.588Z,38.90
2022-09-29T10:39:44.587Z,38.29
2022-09-29T10:40:44.627Z,37.47
2022-09-29T10:41:44.589Z,36.91
2022-09-29T10:42:44.543Z,37.30
2022-09-29T10:43:44.540Z,36.71
2022-09-29T10:44:44.533Z,36.75
2022-09-29T10:45:44.527Z,37.30
2022-09-29T10:46:44.530Z,37.66
2022-09-29T10:47:44.517Z,37.45
2022-09-29T10:48:44.495Z,36.63
2022-09-29T10:49:44.512Z,36.44
2022-09-29T10:50:44.487Z,36.71
2022-09-29T10:51:44.473Z,35.52
2022-09-29T10:52:44.483Z,34.36
2022-09-29T10:53:44.473Z,34.27
2022-09-29T10:54:44.406Z,34.74
2022-09-29T10:55:44.411Z,32.77
2022-09-29T10:56:44.423Z,33.36
2022-09-29T10:57:44.396Z,33.85
2022-09-29T10:58:58.829Z,32.97
2022-09-29T10:59:44.467Z,33.16
2022-09-29T11:00:44.362Z,33.34
2022-09-29T11:01:44.350Z,32.82
2022-09-29T11:02:44.421Z,32.60
2022-09-29T11:03:44.339Z,32.28
2022-09-29T11:04:44.322Z,31.38
2022-09-29T11:05:44.351Z,31.15
2022-09-29T11:06:44.530Z,30.07
2022-09-29T11:07:44.335Z,31.07
2022-09-29T11:08:44.297Z,31.46
2022-09-29T11:09:44.413Z,31.88
2022-09-29T11:10:44.262Z,32.79
2022-09-29T11:11:44.318Z,32.10
2022-09-29T11:12:44.232Z,31.66
2022-09-29T11:13:44.220Z,31.74
2022-09-29T11:14:44.236Z,32.87
2022-09-29T11:15:44.215Z,32.77
2022-09-29T11:16:44.279Z,31.87
2022-09-29T11:17:44.172Z,31.48
2022-09-29T11:18:44.176Z,31.98
2022-09-29T11:19:44.251Z,32.59
2022-09-29T11:20:44.151Z,31.51
2022-09-29T11:21:44.130Z,31.09
2022-09-29T11:22:44.131Z,29.47
2022-09-29T11:23:44.126Z,28.93
2022-09-29T11:24:44.120Z,28.44
2022-09-29T11:25:44.126Z,29.77
2022-09-29T11:26:44.086Z,30.51
2022-09-29T11:27:44.090Z,32.04
2022-09-29T11:28:44.074Z,33.16
2022-09-29T11:29:44.066Z,31.63
2022-09-29T11:30:44.107Z,32.28
2022-09-29T11:31:44.045Z,33.61
2022-09-29T11:32:44.257Z,34.34
2022-09-29T11:33:44.047Z,35.41
2022-09-29T11:34:44.005Z,36.63
2022-09-29T11:35:44.076Z,37.38
2022-09-29T11:36:43.989Z,38.37
2022-09-29T11:37:43.993Z,37.86
2022-09-29T11:38:44.513Z,37.58
2022-09-29T11:39:43.948Z,37.60
2022-09-29T11:40:43.955Z,37.70
2022-09-29T11:41:43.919Z,37.92
2022-09-29T11:42:43.986Z,38.53
2022-09-29T11:43:47.087Z,38.37
2022-09-29T11:44:43.936Z,38.18
2022-09-29T11:45:43.944Z,38.39
2022-09-29T11:46:43.891Z,39.20
2022-09-29T11:47:43.863Z,39.28
2022-09-29T11:48:43.866Z,38.27
2022-09-29T11:49:43.853Z,37.63
2022-09-29T11:50:43.841Z,37.92
2022-09-29T11:51:43.851Z,37.49
2022-09-29T11:52:43.813Z,37.34
2022-09-29T11:53:43.827Z,37.00
2022-09-29T11:54:43.808Z,36.78
2022-09-29T11:55:43.806Z,36.11
2022-09-29T11:56:43.794Z,35.71
2022-09-29T11:57:43.775Z,35.29
2022-09-29T11:58:43.980Z,32.83
2022-09-29T11:59:43.739Z,32.45
2022-09-29T12:00:43.744Z,32.53
2022-09-29T12:01:43.728Z,31.50
2022-09-29T12:02:43.881Z,31.63
2022-09-29T12:03:43.713Z,32.43
2022-09-29T12:04:43.951Z,32.81
2022-09-29T12:05:49.582Z,32.78
2022-09-29T12:06:43.700Z,31.62
2022-09-29T12:07:43.646Z,31.42
2022-09-29T12:08:43.651Z,30.85
2022-09-29T12:09:43.693Z,30.73
2022-09-29T12:10:43.632Z,29.53
2022-09-29T12:11:59.809Z,29.46
2022-09-29T12:12:43.694Z,29.88
2022-09-29T12:13:44.324Z,30.32
2022-09-29T12:14:43.578Z,30.64
2022-09-29T12:15:43.618Z,31.46
2022-09-29T12:16:43.589Z,31.99
2022-09-29T12:17:43.554Z,32.63
2022-09-29T12:18:43.589Z,32.84
2022-09-29T12:19:43.588Z,31.57
2022-09-29T12:20:43.509Z,29.86
2022-09-29T12:21:43.513Z,29.44
2022-09-29T12:22:44.913Z,28.51
2022-09-29T12:23:43.511Z,27.40
2022-09-29T12:24:43.482Z,26.18
2022-09-29T12:25:43.473Z,25.87
2022-09-29T12:26:43.483Z,25.65
2022-09-29T12:27:43.479Z,25.04
2022-09-29T12:28:43.433Z,25.32
2022-09-29T12:29:43.435Z,24.51
2022-09-29T12:30:43.480Z,24.58
2022-09-29T12:31:43.411Z,24.01
2022-09-29T12:32:43.421Z,24.21
2022-09-29T12:33:43.385Z,24.60
2022-09-29T12:34:43.372Z,24.91
2022-09-29T12:35:43.354Z,24.96
2022-09-29T12:36:43.386Z,25.48
2022-09-29T12:37:43.379Z,26.39
2022-09-29T12:38:43.328Z,25.67
2022-09-29T12:39:43.334Z,24.85
2022-09-29T12:40:43.316Z,24.14
2022-09-29T12:41:43.306Z,23.74
2022-09-29T12:42:43.297Z,23.95
2022-09-29T12:43:43.505Z,23.46
2022-09-29T12:44:43.349Z,23.57
2022-09-29T12:45:43.355Z,22.97
2022-09-29T12:46:43.268Z,22.77
